Thursday, November 23, 2017, 2:28 AM EST
Back to Local

KBLM, Belmar-farmingdale

Location: Farmingdale, NJ, United States Lat: 40.183
Local Time: 2:28 AM EST ( 7:28 GMT) Lon: -74.133
Time Zone: US/Eastern Elev: 157 ft

Show me the last for .
Show Decoded

2017-11-23 01:56 METAR KBLM 230656Z AUTO 32006KT 10SM CLR M01/M05 A3010 RMK AO2 SLP199 T10061050
                 FZRANO =
2017-11-23 00:56 METAR KBLM 230556Z AUTO 30009KT 10SM CLR 01/M06 A3010 RMK AO2 SLP198 6////
                 T00061056 10050 20006 50003 FZRANO =
2017-11-22 23:56 METAR KBLM 230456Z AUTO 31010KT 10SM CLR 01/M06 A3011 RMK AO2 SLP201 T00111056
                 401330011 FZRANO =
2017-11-22 22:56 METAR KBLM 230356Z AUTO 32010KT 10SM CLR 02/M05 A3011 RMK AO2 SLP201 T00171050
                 FZRANO =
2017-11-22 21:56 METAR KBLM 230256Z AUTO 31010G18KT 10SM CLR 02/M04 A3009 RMK AO2 SLP195
                 T00221044 FZRANO =
2017-11-22 20:56 METAR KBLM 230156Z AUTO 32012KT 10SM CLR 03/M04 A3007 RMK AO2 SLP189 T00331039 =
2017-11-22 19:56 METAR KBLM 230056Z AUTO 31015KT 10SM CLR 04/M04 A3006 RMK AO2 SLP186 T00441039 =
2017-11-22 18:56 METAR KBLM 222356Z AUTO 31014KT 10SM OVC040 05/M03 RMK AO2 PK WND 32026/2318
                 SLPNO 6//// T00501033 10128 20050 $ =
2017-11-22 17:56 METAR KBLM 222256Z AUTO 31013KT 10SM OVC042 06/M02 A3001 RMK AO2 SLP167
                 T00611022 TSNO =
2017-11-22 16:56 METAR KBLM 222156Z AUTO 32017KT 10SM BKN038 07/M01 A2999 RMK AO2 PK WND
                 29028/2123 SLP160 T00671011 =
2017-11-22 15:56 METAR KBLM 222056Z AUTO 31019G26KT 10SM CLR 08/01 A2995 RMK AO2 PK WND
                 32030/2017 SLP146 6//// T00830006 53021 =
2017-11-22 14:56 METAR KBLM 221956Z AUTO 30020G27KT 10SM FEW048 SCT055 11/03 A2991 RMK AO2 PK WND
                 30027/1955 SLP135 T01060028 =
2017-11-22 13:56 METAR KBLM 221856Z AUTO 30013G18KT 10SM BKN032 OVC040 11/06 A2990 RMK AO2 SLP129
                 T01110056 =
2017-11-22 12:56 METAR KBLM 221756Z AUTO 30014G18KT 10SM FEW060 SCT075 BKN100 13/08 A2988 RMK AO2
                 RAE20 SLP124 P0000 60013 T01280078 10128 20111 58010 =
2017-11-22 11:56 METAR KBLM 221656Z AUTO 29008KT 10SM -RA FEW013 BKN060 OVC090 11/09 A2989 RMK
                 AO2 RAE18B43 SLP128 P0000 T01110089 =
2017-11-22 10:56 METAR KBLM 221556Z AUTO 30007KT 10SM -RA FEW008 SCT013 OVC090 12/11 A2991 RMK
                 AO2 RAB48 SLP132 P0000 T01220106 =
2017-11-22 10:35 METAR KBLM 221535Z AUTO 28005KT 10SM OVC012 12/10 A2991 RMK AO2 =
2017-11-22 10:11 METAR KBLM 221511Z AUTO 28007KT 10SM OVC007 12/11 A2992 RMK AO2 CIG 005V011 =
2017-11-22 09:56 METAR KBLM 221456Z AUTO 28009KT 10SM BKN005 OVC013 12/11 A2991 RMK AO2 RAE20 CIG
                 003V008 SLP135 P0001 60013 T01170111 =
2017-11-22 09:40 METAR KBLM 221440Z AUTO 28006KT 10SM BKN005 BKN027 OVC060 12/11 A2990 RMK AO2
                 RAE20 CIG 003V008 P0001 =
2017-11-22 09:27 METAR KBLM 221427Z AUTO 27006KT 10SM BKN007 BKN029 OVC075 12/11 A2990 RMK AO2
                 RAE20 CIG 004V014 P0001 =
2017-11-22 08:56 METAR KBLM 221356Z AUTO 24004KT 9SM -RA FEW007 OVC080 12/11 A2990 RMK AO2 SLP129
                 P0006 T01170111 =
2017-11-22 08:44 METAR KBLM 221344Z AUTO 25005KT 7SM -RA FEW009 OVC080 12/11 A2990 RMK AO2 P0005
                 =
2017-11-22 08:25 METAR KBLM 221325Z AUTO 26006KT 8SM -RA FEW007 BKN029 OVC070 12/12 A2990 RMK AO2
                 P0002 =
2017-11-22 08:13 METAR KBLM 221313Z AUTO 24007KT 6SM -RA BR OVC029 12/12 A2992 RMK AO2 P0001 =
2017-11-22 07:56 METAR KBLM 221256Z AUTO 24004KT 3SM -RA BR OVC031 12/12 A2991 RMK AO2 SLP135
                 P0006 T01170117 =
2017-11-22 07:51 METAR KBLM 221251Z AUTO 2SM -RA BR OVC031 12/12 RMK AO2 P0006 $ =
2017-11-22 07:36 METAR KBLM 221236Z AUTO 00000KT 1SM -RA BR OVC033 12/12 A2992 RMK AO2 P0005
                 RVRNO =
2017-11-22 07:32 METAR KBLM 221232Z AUTO 26003KT 2SM -RA BR OVC033 12/12 A2992 RMK AO2 P0005 =
2017-11-22 07:21 METAR KBLM 221221Z AUTO 23003KT 3SM -RA BR SCT003 OVC033 12/12 A2992 RMK AO2
                 P0003 =
2017-11-22 06:56 METAR KBLM 221156Z AUTO 16003KT 7SM -RA OVC003 12/12 A2991 RMK AO2 SLP134 P0003
                 60026 7//// T01170117 10133 20111 56019 =
2017-11-22 06:45 METAR KBLM 221145Z AUTO 00000KT 8SM -RA BKN003 OVC036 12/12 A2991 RMK AO2 P0002
                 =
2017-11-22 06:35 METAR KBLM 221135Z AUTO 15003KT 7SM -RA SCT003 OVC036 12/12 A2991 RMK AO2 P0002
                 =
2017-11-22 05:56 METAR KBLM 221056Z AUTO 15005KT 10SM -RA SCT034 SCT075 OVC090 12/12 A2993 RMK
                 AO2 RAB23 SLP141 P0001 T01220117 =
2017-11-22 04:56 METAR KBLM 220956Z AUTO 11004KT 10SM FEW015 BKN042 OVC085 13/12 A2991 RMK AO2
                 RAE56 SLP135 P0003 T01280117 =
2017-11-22 03:56 METAR KBLM 220856Z AUTO 25004KT 10SM -RA FEW032 OVC070 13/12 A2997 RMK AO2
                 SLP153 P0011 60019 T01280117 =
2017-11-22 02:56 METAR KBLM 220756Z AUTO 19007KT 10SM -RA FEW048 OVC070 13/11 RMK AO2 SLPNO P0005
                 T01280106 $ =

Support USWX by starting your Amazon purchase here.